sensor_id;sensor_type;location;lat;lon;timestamp;P1;durP1;ratioP1;P2;durP2;ratioP2
16393;SDS011;8306;51.128;4.476;2023-04-06T00:01:06;14.87;;;13.53;;
16393;SDS011;8306;51.128;4.476;2023-04-06T00:03:32;15.37;;;13.60;;
16393;SDS011;8306;51.128;4.476;2023-04-06T00:05:59;14.43;;;13.03;;
16393;SDS011;8306;51.128;4.476;2023-04-06T00:08:25;14.47;;;13.23;;
16393;SDS011;8306;51.128;4.476;2023-04-06T00:10:52;14.90;;;13.50;;
16393;SDS011;8306;51.128;4.476;2023-04-06T00:13:18;13.43;;;12.10;;
16393;SDS011;8306;51.128;4.476;2023-04-06T00:15:45;14.90;;;13.57;;
16393;SDS011;8306;51.128;4.476;2023-04-06T00:18:11;14.43;;;13.10;;
16393;SDS011;8306;51.128;4.476;2023-04-06T00:20:38;14.60;;;13.10;;
16393;SDS011;8306;51.128;4.476;2023-04-06T00:23:04;13.70;;;12.50;;
16393;SDS011;8306;51.128;4.476;2023-04-06T00:25:30;13.70;;;12.40;;
16393;SDS011;8306;51.128;4.476;2023-04-06T00:27:57;15.07;;;13.67;;
16393;SDS011;8306;51.128;4.476;2023-04-06T00:30:23;13.70;;;12.60;;
16393;SDS011;8306;51.128;4.476;2023-04-06T00:32:50;14.70;;;13.37;;
16393;SDS011;8306;51.128;4.476;2023-04-06T00:35:16;16.70;;;13.60;;
16393;SDS011;8306;51.128;4.476;2023-04-06T00:37:45;13.60;;;12.40;;
16393;SDS011;8306;51.128;4.476;2023-04-06T00:40:10;12.53;;;11.43;;
16393;SDS011;8306;51.128;4.476;2023-04-06T00:42:36;13.17;;;11.60;;
16393;SDS011;8306;51.128;4.476;2023-04-06T00:45:03;11.80;;;10.70;;
16393;SDS011;8306;51.128;4.476;2023-04-06T00:47:29;12.83;;;11.63;;
16393;SDS011;8306;51.128;4.476;2023-04-06T00:49:56;12.37;;;11.13;;
16393;SDS011;8306;51.128;4.476;2023-04-06T00:52:22;12.17;;;11.17;;
16393;SDS011;8306;51.128;4.476;2023-04-06T00:54:49;12.77;;;11.60;;
16393;SDS011;8306;51.128;4.476;2023-04-06T00:57:18;12.07;;;11.07;;
16393;SDS011;8306;51.128;4.476;2023-04-06T00:59:41;12.80;;;11.63;;
16393;SDS011;8306;51.128;4.476;2023-04-06T01:02:08;11.63;;;10.63;;
16393;SDS011;8306;51.128;4.476;2023-04-06T01:04:34;12.73;;;11.50;;
16393;SDS011;8306;51.128;4.476;2023-04-06T01:07:01;11.80;;;10.80;;
16393;SDS011;8306;51.128;4.476;2023-04-06T01:09:28;12.57;;;11.40;;
16393;SDS011;8306;51.128;4.476;2023-04-06T01:11:54;12.63;;;11.43;;
16393;SDS011;8306;51.128;4.476;2023-04-06T01:14:20;11.93;;;10.93;;
16393;SDS011;8306;51.128;4.476;2023-04-06T01:16:47;11.57;;;10.63;;
16393;SDS011;8306;51.128;4.476;2023-04-06T01:19:13;12.57;;;11.57;;
16393;SDS011;8306;51.128;4.476;2023-04-06T01:21:40;12.03;;;11.03;;
16393;SDS011;8306;51.128;4.476;2023-04-06T01:24:06;11.30;;;10.30;;
16393;SDS011;8306;51.128;4.476;2023-04-06T01:26:33;11.50;;;10.60;;
16393;SDS011;8306;51.128;4.476;2023-04-06T01:28:59;11.53;;;10.53;;
16393;SDS011;8306;51.128;4.476;2023-04-06T01:31:26;11.87;;;10.87;;
16393;SDS011;8306;51.128;4.476;2023-04-06T01:33:52;11.40;;;10.20;;
16393;SDS011;8306;51.128;4.476;2023-04-06T01:36:19;11.83;;;10.73;;
16393;SDS011;8306;51.128;4.476;2023-04-06T01:38:45;10.80;;;9.83;;
16393;SDS011;8306;51.128;4.476;2023-04-06T01:41:12;12.47;;;11.37;;
16393;SDS011;8306;51.128;4.476;2023-04-06T01:43:38;11.27;;;10.47;;
16393;SDS011;8306;51.128;4.476;2023-04-06T01:46:05;11.73;;;10.73;;
16393;SDS011;8306;51.128;4.476;2023-04-06T01:48:31;12.23;;;11.13;;
16393;SDS011;8306;51.128;4.476;2023-04-06T01:50:58;11.77;;;10.73;;
16393;SDS011;8306;51.128;4.476;2023-04-06T01:53:24;12.00;;;10.50;;
16393;SDS011;8306;51.128;4.476;2023-04-06T01:55:50;12.77;;;11.67;;
16393;SDS011;8306;51.128;4.476;2023-04-06T01:58:17;11.50;;;10.50;;
16393;SDS011;8306;51.128;4.476;2023-04-06T02:00:43;12.03;;;10.87;;
16393;SDS011;8306;51.128;4.476;2023-04-06T02:03:10;11.93;;;11.00;;
16393;SDS011;8306;51.128;4.476;2023-04-06T02:05:36;10.93;;;10.03;;
16393;SDS011;8306;51.128;4.476;2023-04-06T02:08:06;11.20;;;10.27;;
16393;SDS011;8306;51.128;4.476;2023-04-06T02:10:35;11.20;;;10.20;;
16393;SDS011;8306;51.128;4.476;2023-04-06T02:13:01;11.43;;;10.50;;
16393;SDS011;8306;51.128;4.476;2023-04-06T02:15:28;10.57;;;9.67;;
16393;SDS011;8306;51.128;4.476;2023-04-06T02:17:54;11.80;;;10.80;;
16393;SDS011;8306;51.128;4.476;2023-04-06T02:20:21;10.47;;;9.67;;
16393;SDS011;8306;51.128;4.476;2023-04-06T02:22:47;11.90;;;10.70;;
16393;SDS011;8306;51.128;4.476;2023-04-06T02:25:14;11.27;;;10.33;;
16393;SDS011;8306;51.128;4.476;2023-04-06T02:27:40;11.30;;;10.30;;
16393;SDS011;8306;51.128;4.476;2023-04-06T02:30:13;10.97;;;9.97;;
16393;SDS011;8306;51.128;4.476;2023-04-06T02:32:39;11.83;;;10.73;;
16393;SDS011;8306;51.128;4.476;2023-04-06T02:35:06;11.43;;;10.27;;
16393;SDS011;8306;51.128;4.476;2023-04-06T02:37:32;10.53;;;9.63;;
16393;SDS011;8306;51.128;4.476;2023-04-06T02:39:59;11.37;;;10.27;;
16393;SDS011;8306;51.128;4.476;2023-04-06T02:42:25;11.10;;;10.10;;
16393;SDS011;8306;51.128;4.476;2023-04-06T02:44:52;11.47;;;10.37;;
16393;SDS011;8306;51.128;4.476;2023-04-06T02:47:18;11.77;;;10.77;;
16393;SDS011;8306;51.128;4.476;2023-04-06T02:49:45;10.67;;;9.77;;
16393;SDS011;8306;51.128;4.476;2023-04-06T02:52:12;10.33;;;9.43;;
16393;SDS011;8306;51.128;4.476;2023-04-06T02:54:38;10.53;;;9.60;;
16393;SDS011;8306;51.128;4.476;2023-04-06T02:57:05;10.33;;;9.43;;
16393;SDS011;8306;51.128;4.476;2023-04-06T02:59:32;11.23;;;10.23;;
16393;SDS011;8306;51.128;4.476;2023-04-06T03:01:58;11.63;;;10.53;;
16393;SDS011;8306;51.128;4.476;2023-04-06T03:04:25;10.83;;;9.67;;
16393;SDS011;8306;51.128;4.476;2023-04-06T03:06:51;11.13;;;10.23;;
16393;SDS011;8306;51.128;4.476;2023-04-06T03:09:18;11.17;;;10.23;;
16393;SDS011;8306;51.128;4.476;2023-04-06T03:11:44;11.47;;;10.40;;
16393;SDS011;8306;51.128;4.476;2023-04-06T03:14:11;10.63;;;9.83;;
16393;SDS011;8306;51.128;4.476;2023-04-06T03:16:37;11.13;;;10.23;;
16393;SDS011;8306;51.128;4.476;2023-04-06T03:19:04;10.87;;;9.90;;
16393;SDS011;8306;51.128;4.476;2023-04-06T03:21:30;11.30;;;10.33;;
16393;SDS011;8306;51.128;4.476;2023-04-06T03:23:57;11.00;;;10.00;;
16393;SDS011;8306;51.128;4.476;2023-04-06T03:26:23;11.17;;;10.10;;
16393;SDS011;8306;51.128;4.476;2023-04-06T03:28:50;10.93;;;9.70;;
16393;SDS011;8306;51.128;4.476;2023-04-06T03:31:16;11.13;;;10.03;;
16393;SDS011;8306;51.128;4.476;2023-04-06T03:33:42;10.47;;;9.43;;
16393;SDS011;8306;51.128;4.476;2023-04-06T03:36:09;11.37;;;10.30;;
16393;SDS011;8306;51.128;4.476;2023-04-06T03:38:35;10.87;;;9.97;;
16393;SDS011;8306;51.128;4.476;2023-04-06T03:41:02;10.90;;;9.83;;
16393;SDS011;8306;51.128;4.476;2023-04-06T03:43:28;11.10;;;10.10;;
16393;SDS011;8306;51.128;4.476;2023-04-06T03:45:55;10.00;;;9.20;;
16393;SDS011;8306;51.128;4.476;2023-04-06T03:48:21;10.57;;;9.67;;
16393;SDS011;8306;51.128;4.476;2023-04-06T03:50:48;10.57;;;9.73;;
16393;SDS011;8306;51.128;4.476;2023-04-06T03:53:14;9.93;;;9.07;;
16393;SDS011;8306;51.128;4.476;2023-04-06T03:55:41;10.13;;;9.33;;
16393;SDS011;8306;51.128;4.476;2023-04-06T03:58:07;10.60;;;9.60;;
16393;SDS011;8306;51.128;4.476;2023-04-06T04:00:34;11.07;;;10.03;;
16393;SDS011;8306;51.128;4.476;2023-04-06T04:03:00;10.40;;;9.50;;
16393;SDS011;8306;51.128;4.476;2023-04-06T04:05:27;10.43;;;9.53;;
16393;SDS011;8306;51.128;4.476;2023-04-06T04:07:53;10.80;;;9.90;;
16393;SDS011;8306;51.128;4.476;2023-04-06T04:10:20;10.97;;;10.07;;
16393;SDS011;8306;51.128;4.476;2023-04-06T04:12:46;11.17;;;10.27;;
16393;SDS011;8306;51.128;4.476;2023-04-06T04:15:13;11.83;;;10.73;;
16393;SDS011;8306;51.128;4.476;2023-04-06T04:17:39;11.10;;;10.20;;
16393;SDS011;8306;51.128;4.476;2023-04-06T04:20:06;11.60;;;10.60;;
16393;SDS011;8306;51.128;4.476;2023-04-06T04:22:32;11.63;;;10.50;;
16393;SDS011;8306;51.128;4.476;2023-04-06T04:24:59;11.73;;;10.73;;
16393;SDS011;8306;51.128;4.476;2023-04-06T04:27:25;17.33;;;11.60;;
16393;SDS011;8306;51.128;4.476;2023-04-06T04:29:52;11.80;;;10.83;;
16393;SDS011;8306;51.128;4.476;2023-04-06T04:32:18;11.53;;;10.57;;
16393;SDS011;8306;51.128;4.476;2023-04-06T04:34:44;12.70;;;11.47;;
16393;SDS011;8306;51.128;4.476;2023-04-06T04:37:11;12.37;;;11.17;;
16393;SDS011;8306;51.128;4.476;2023-04-06T04:39:37;12.60;;;11.23;;
16393;SDS011;8306;51.128;4.476;2023-04-06T04:42:04;12.77;;;11.63;;
16393;SDS011;8306;51.128;4.476;2023-04-06T04:44:30;13.10;;;12.00;;
16393;SDS011;8306;51.128;4.476;2023-04-06T04:46:57;12.27;;;11.27;;
16393;SDS011;8306;51.128;4.476;2023-04-06T04:49:23;11.57;;;10.67;;
16393;SDS011;8306;51.128;4.476;2023-04-06T04:51:50;11.53;;;10.53;;
16393;SDS011;8306;51.128;4.476;2023-04-06T04:54:16;11.70;;;10.53;;
16393;SDS011;8306;51.128;4.476;2023-04-06T04:56:43;11.50;;;10.50;;
16393;SDS011;8306;51.128;4.476;2023-04-06T04:59:09;11.97;;;10.93;;
16393;SDS011;8306;51.128;4.476;2023-04-06T05:01:36;12.63;;;11.63;;
16393;SDS011;8306;51.128;4.476;2023-04-06T05:04:02;12.07;;;11.07;;
16393;SDS011;8306;51.128;4.476;2023-04-06T05:06:29;12.57;;;11.57;;
16393;SDS011;8306;51.128;4.476;2023-04-06T05:08:55;11.23;;;10.27;;
16393;SDS011;8306;51.128;4.476;2023-04-06T05:11:22;11.87;;;10.77;;
16393;SDS011;8306;51.128;4.476;2023-04-06T05:13:48;12.27;;;11.17;;
16393;SDS011;8306;51.128;4.476;2023-04-06T05:16:15;11.80;;;10.67;;
16393;SDS011;8306;51.128;4.476;2023-04-06T05:18:41;11.30;;;10.40;;
16393;SDS011;8306;51.128;4.476;2023-04-06T05:21:08;11.83;;;10.90;;
16393;SDS011;8306;51.128;4.476;2023-04-06T05:23:34;12.83;;;11.67;;
16393;SDS011;8306;51.128;4.476;2023-04-06T05:26:01;11.60;;;10.57;;
16393;SDS011;8306;51.128;4.476;2023-04-06T05:28:27;11.60;;;10.60;;
16393;SDS011;8306;51.128;4.476;2023-04-06T05:30:53;12.37;;;11.37;;
16393;SDS011;8306;51.128;4.476;2023-04-06T05:33:20;12.83;;;11.60;;
16393;SDS011;8306;51.128;4.476;2023-04-06T05:35:46;12.50;;;11.37;;
16393;SDS011;8306;51.128;4.476;2023-04-06T05:38:13;12.80;;;11.67;;
16393;SDS011;8306;51.128;4.476;2023-04-06T05:40:39;11.87;;;10.87;;
16393;SDS011;8306;51.128;4.476;2023-04-06T05:43:06;12.50;;;11.50;;
16393;SDS011;8306;51.128;4.476;2023-04-06T05:45:32;12.97;;;11.83;;
16393;SDS011;8306;51.128;4.476;2023-04-06T05:47:59;12.20;;;11.17;;
16393;SDS011;8306;51.128;4.476;2023-04-06T05:50:26;12.53;;;11.47;;
16393;SDS011;8306;51.128;4.476;2023-04-06T05:52:52;12.73;;;11.43;;
16393;SDS011;8306;51.128;4.476;2023-04-06T05:55:18;11.90;;;10.90;;
16393;SDS011;8306;51.128;4.476;2023-04-06T05:57:45;11.73;;;10.73;;
16393;SDS011;8306;51.128;4.476;2023-04-06T06:00:12;13.70;;;12.40;;
16393;SDS011;8306;51.128;4.476;2023-04-06T06:02:38;14.13;;;12.73;;
16393;SDS011;8306;51.128;4.476;2023-04-06T06:05:05;13.53;;;12.40;;
16393;SDS011;8306;51.128;4.476;2023-04-06T06:07:31;14.33;;;12.87;;
16393;SDS011;8306;51.128;4.476;2023-04-06T06:09:58;13.50;;;12.40;;
16393;SDS011;8306;51.128;4.476;2023-04-06T06:12:24;14.00;;;12.80;;
16393;SDS011;8306;51.128;4.476;2023-04-06T06:14:51;14.23;;;12.70;;
16393;SDS011;8306;51.128;4.476;2023-04-06T06:17:17;14.00;;;12.70;;
16393;SDS011;8306;51.128;4.476;2023-04-06T06:19:44;15.03;;;13.57;;
16393;SDS011;8306;51.128;4.476;2023-04-06T06:22:10;14.87;;;13.50;;
16393;SDS011;8306;51.128;4.476;2023-04-06T06:24:36;15.50;;;14.00;;
16393;SDS011;8306;51.128;4.476;2023-04-06T06:27:03;15.93;;;14.73;;
16393;SDS011;8306;51.128;4.476;2023-04-06T06:29:29;15.20;;;13.87;;
16393;SDS011;8306;51.128;4.476;2023-04-06T06:31:56;15.60;;;14.40;;
16393;SDS011;8306;51.128;4.476;2023-04-06T06:34:22;16.67;;;15.30;;
16393;SDS011;8306;51.128;4.476;2023-04-06T06:36:49;15.43;;;14.13;;
16393;SDS011;8306;51.128;4.476;2023-04-06T06:39:15;16.60;;;15.17;;
16393;SDS011;8306;51.128;4.476;2023-04-06T06:41:42;15.20;;;14.07;;
16393;SDS011;8306;51.128;4.476;2023-04-06T06:44:08;16.43;;;14.93;;
16393;SDS011;8306;51.128;4.476;2023-04-06T06:46:35;16.20;;;15.00;;
16393;SDS011;8306;51.128;4.476;2023-04-06T06:49:01;15.60;;;14.23;;
16393;SDS011;8306;51.128;4.476;2023-04-06T06:51:28;17.93;;;16.20;;
16393;SDS011;8306;51.128;4.476;2023-04-06T06:53:54;16.30;;;15.00;;
16393;SDS011;8306;51.128;4.476;2023-04-06T06:56:21;15.53;;;14.23;;
16393;SDS011;8306;51.128;4.476;2023-04-06T06:58:47;17.47;;;16.00;;
16393;SDS011;8306;51.128;4.476;2023-04-06T07:01:14;17.70;;;16.27;;
16393;SDS011;8306;51.128;4.476;2023-04-06T07:03:40;18.53;;;17.10;;
16393;SDS011;8306;51.128;4.476;2023-04-06T07:06:07;18.50;;;17.00;;
16393;SDS011;8306;51.128;4.476;2023-04-06T07:08:33;19.00;;;17.50;;
16393;SDS011;8306;51.128;4.476;2023-04-06T07:11:00;18.63;;;16.97;;
16393;SDS011;8306;51.128;4.476;2023-04-06T07:13:26;19.07;;;17.33;;
16393;SDS011;8306;51.128;4.476;2023-04-06T07:15:53;17.60;;;16.20;;
16393;SDS011;8306;51.128;4.476;2023-04-06T07:18:19;19.57;;;18.07;;
16393;SDS011;8306;51.128;4.476;2023-04-06T07:20:46;19.47;;;17.87;;
16393;SDS011;8306;51.128;4.476;2023-04-06T07:23:12;18.70;;;17.00;;
16393;SDS011;8306;51.128;4.476;2023-04-06T07:25:39;27.00;;;19.10;;
16393;SDS011;8306;51.128;4.476;2023-04-06T07:28:05;18.33;;;16.63;;
16393;SDS011;8306;51.128;4.476;2023-04-06T07:30:31;19.13;;;17.70;;
16393;SDS011;8306;51.128;4.476;2023-04-06T07:32:58;20.23;;;18.27;;
16393;SDS011;8306;51.128;4.476;2023-04-06T07:35:25;17.97;;;16.57;;
16393;SDS011;8306;51.128;4.476;2023-04-06T07:37:51;18.40;;;17.00;;
16393;SDS011;8306;51.128;4.476;2023-04-06T07:40:17;18.33;;;16.63;;
16393;SDS011;8306;51.128;4.476;2023-04-06T07:42:44;17.03;;;15.40;;
16393;SDS011;8306;51.128;4.476;2023-04-06T07:45:10;17.37;;;15.60;;
16393;SDS011;8306;51.128;4.476;2023-04-06T07:47:37;16.90;;;15.50;;
16393;SDS011;8306;51.128;4.476;2023-04-06T07:50:04;15.30;;;14.10;;
16393;SDS011;8306;51.128;4.476;2023-04-06T07:52:30;15.57;;;13.77;;
16393;SDS011;8306;51.128;4.476;2023-04-06T07:54:56;15.63;;;14.23;;
16393;SDS011;8306;51.128;4.476;2023-04-06T07:57:23;14.43;;;13.27;;
16393;SDS011;8306;51.128;4.476;2023-04-06T07:59:49;14.93;;;13.70;;
16393;SDS011;8306;51.128;4.476;2023-04-06T08:02:16;14.20;;;13.03;;
16393;SDS011;8306;51.128;4.476;2023-04-06T08:04:43;14.47;;;13.30;;
16393;SDS011;8306;51.128;4.476;2023-04-06T08:07:09;13.03;;;12.03;;
16393;SDS011;8306;51.128;4.476;2023-04-06T08:09:35;13.70;;;12.67;;
16393;SDS011;8306;51.128;4.476;2023-04-06T08:12:02;12.60;;;11.60;;
16393;SDS011;8306;51.128;4.476;2023-04-06T08:14:28;13.60;;;12.60;;
16393;SDS011;8306;51.128;4.476;2023-04-06T08:16:55;12.03;;;10.97;;
16393;SDS011;8306;51.128;4.476;2023-04-06T08:19:21;11.77;;;10.87;;
16393;SDS011;8306;51.128;4.476;2023-04-06T08:21:48;11.43;;;10.63;;
16393;SDS011;8306;51.128;4.476;2023-04-06T08:24:14;11.73;;;10.50;;
16393;SDS011;8306;51.128;4.476;2023-04-06T08:26:41;11.80;;;10.90;;
16393;SDS011;8306;51.128;4.476;2023-04-06T08:29:09;11.00;;;10.20;;
16393;SDS011;8306;51.128;4.476;2023-04-06T08:31:36;11.57;;;10.57;;
16393;SDS011;8306;51.128;4.476;2023-04-06T08:34:05;11.23;;;10.33;;
16393;SDS011;8306;51.128;4.476;2023-04-06T08:36:31;10.83;;;10.03;;
16393;SDS011;8306;51.128;4.476;2023-04-06T08:38:58;10.53;;;9.73;;
16393;SDS011;8306;51.128;4.476;2023-04-06T08:41:24;10.77;;;9.93;;
16393;SDS011;8306;51.128;4.476;2023-04-06T08:44:00;9.80;;;8.90;;
16393;SDS011;8306;51.128;4.476;2023-04-06T08:46:23;9.77;;;8.97;;
16393;SDS011;8306;51.128;4.476;2023-04-06T08:48:53;8.70;;;8.00;;
16393;SDS011;8306;51.128;4.476;2023-04-06T08:51:19;7.60;;;7.00;;
16393;SDS011;8306;51.128;4.476;2023-04-06T08:53:46;8.43;;;7.70;;
16393;SDS011;8306;51.128;4.476;2023-04-06T08:56:12;6.93;;;6.33;;
16393;SDS011;8306;51.128;4.476;2023-04-06T08:58:39;6.87;;;6.33;;
16393;SDS011;8306;51.128;4.476;2023-04-06T09:01:08;6.70;;;6.17;;
16393;SDS011;8306;51.128;4.476;2023-04-06T09:03:32;6.17;;;5.67;;
16393;SDS011;8306;51.128;4.476;2023-04-06T09:05:58;7.27;;;6.60;;
16393;SDS011;8306;51.128;4.476;2023-04-06T09:08:24;5.70;;;5.20;;
16393;SDS011;8306;51.128;4.476;2023-04-06T09:10:51;6.40;;;5.80;;
16393;SDS011;8306;51.128;4.476;2023-04-06T09:13:17;6.17;;;5.63;;
16393;SDS011;8306;51.128;4.476;2023-04-06T09:15:44;5.20;;;4.83;;
16393;SDS011;8306;51.128;4.476;2023-04-06T09:18:10;5.17;;;4.77;;
16393;SDS011;8306;51.128;4.476;2023-04-06T09:20:37;5.87;;;5.47;;
16393;SDS011;8306;51.128;4.476;2023-04-06T09:23:03;5.87;;;5.37;;
16393;SDS011;8306;51.128;4.476;2023-04-06T09:25:30;6.03;;;5.40;;
16393;SDS011;8306;51.128;4.476;2023-04-06T09:28:05;5.23;;;4.93;;
16393;SDS011;8306;51.128;4.476;2023-04-06T09:30:28;5.97;;;5.40;;
16393;SDS011;8306;51.128;4.476;2023-04-06T09:32:55;7.33;;;6.73;;
16393;SDS011;8306;51.128;4.476;2023-04-06T09:35:21;6.20;;;5.60;;
16393;SDS011;8306;51.128;4.476;2023-04-06T09:37:51;6.37;;;5.97;;
16393;SDS011;8306;51.128;4.476;2023-04-06T09:40:17;6.50;;;5.97;;
16393;SDS011;8306;51.128;4.476;2023-04-06T09:42:47;7.63;;;6.80;;
16393;SDS011;8306;51.128;4.476;2023-04-06T09:45:13;7.60;;;7.00;;
16393;SDS011;8306;51.128;4.476;2023-04-06T09:47:40;7.70;;;7.10;;
16393;SDS011;8306;51.128;4.476;2023-04-06T09:50:06;7.63;;;7.03;;
16393;SDS011;8306;51.128;4.476;2023-04-06T09:52:33;7.93;;;7.23;;
16393;SDS011;8306;51.128;4.476;2023-04-06T09:55:00;7.80;;;7.10;;
16393;SDS011;8306;51.128;4.476;2023-04-06T09:57:27;7.40;;;6.73;;
16393;SDS011;8306;51.128;4.476;2023-04-06T10:00:01;7.70;;;7.07;;
16393;SDS011;8306;51.128;4.476;2023-04-06T10:02:41;7.47;;;6.93;;
16393;SDS011;8306;51.128;4.476;2023-04-06T10:05:07;8.40;;;7.70;;
16393;SDS011;8306;51.128;4.476;2023-04-06T10:07:32;8.37;;;7.50;;
16393;SDS011;8306;51.128;4.476;2023-04-06T10:09:58;8.23;;;7.63;;
16393;SDS011;8306;51.128;4.476;2023-04-06T10:12:25;8.43;;;7.73;;
16393;SDS011;8306;51.128;4.476;2023-04-06T10:14:51;7.70;;;7.10;;
16393;SDS011;8306;51.128;4.476;2023-04-06T10:17:18;8.17;;;7.47;;
16393;SDS011;8306;51.128;4.476;2023-04-06T10:19:46;8.13;;;7.63;;
16393;SDS011;8306;51.128;4.476;2023-04-06T10:22:11;9.07;;;8.17;;
16393;SDS011;8306;51.128;4.476;2023-04-06T10:24:37;9.20;;;8.40;;
16393;SDS011;8306;51.128;4.476;2023-04-06T10:27:04;8.93;;;8.23;;
16393;SDS011;8306;51.128;4.476;2023-04-06T10:29:43;9.10;;;8.30;;
16393;SDS011;8306;51.128;4.476;2023-04-06T10:32:08;8.03;;;7.43;;
16393;SDS011;8306;51.128;4.476;2023-04-06T10:34:35;8.00;;;7.50;;
16393;SDS011;8306;51.128;4.476;2023-04-06T10:37:14;7.67;;;7.07;;
16393;SDS011;8306;51.128;4.476;2023-04-06T10:39:47;8.20;;;7.60;;
16393;SDS011;8306;51.128;4.476;2023-04-06T10:42:20;8.73;;;8.03;;
16393;SDS011;8306;51.128;4.476;2023-04-06T10:44:45;8.47;;;7.87;;
16393;SDS011;8306;51.128;4.476;2023-04-06T10:47:18;8.90;;;8.27;;
16393;SDS011;8306;51.128;4.476;2023-04-06T10:49:44;8.13;;;7.53;;
16393;SDS011;8306;51.128;4.476;2023-04-06T10:52:10;9.20;;;8.47;;
16393;SDS011;8306;51.128;4.476;2023-04-06T10:54:40;9.37;;;8.67;;
16393;SDS011;8306;51.128;4.476;2023-04-06T10:57:03;9.23;;;8.53;;
16393;SDS011;8306;51.128;4.476;2023-04-06T10:59:30;9.00;;;8.30;;
16393;SDS011;8306;51.128;4.476;2023-04-06T11:01:56;9.80;;;9.07;;
16393;SDS011;8306;51.128;4.476;2023-04-06T11:04:24;9.50;;;8.80;;
16393;SDS011;8306;51.128;4.476;2023-04-06T11:06:49;9.87;;;9.07;;
16393;SDS011;8306;51.128;4.476;2023-04-06T11:09:25;9.70;;;9.00;;
16393;SDS011;8306;51.128;4.476;2023-04-06T11:11:54;10.70;;;9.70;;
16393;SDS011;8306;51.128;4.476;2023-04-06T11:14:21;10.67;;;9.77;;
16393;SDS011;8306;51.128;4.476;2023-04-06T11:16:47;11.20;;;10.27;;
16393;SDS011;8306;51.128;4.476;2023-04-06T11:19:16;10.77;;;9.87;;
16393;SDS011;8306;51.128;4.476;2023-04-06T11:21:46;10.07;;;9.37;;
16393;SDS011;8306;51.128;4.476;2023-04-06T11:24:16;10.77;;;9.87;;
16393;SDS011;8306;51.128;4.476;2023-04-06T11:29:18;9.63;;;8.83;;
16393;SDS011;8306;51.128;4.476;2023-04-06T11:31:47;9.67;;;8.87;;
16393;SDS011;8306;51.128;4.476;2023-04-06T11:34:15;9.90;;;9.17;;
16393;SDS011;8306;51.128;4.476;2023-04-06T11:36:39;9.73;;;9.03;;
16393;SDS011;8306;51.128;4.476;2023-04-06T11:39:06;10.40;;;9.53;;
16393;SDS011;8306;51.128;4.476;2023-04-06T11:41:32;11.00;;;10.10;;
16393;SDS011;8306;51.128;4.476;2023-04-06T11:44:00;9.83;;;9.10;;
16393;SDS011;8306;51.128;4.476;2023-04-06T11:46:25;10.13;;;9.13;;
16393;SDS011;8306;51.128;4.476;2023-04-06T11:48:51;9.83;;;9.10;;
16393;SDS011;8306;51.128;4.476;2023-04-06T11:51:21;9.40;;;8.70;;
16393;SDS011;8306;51.128;4.476;2023-04-06T11:53:47;9.57;;;8.77;;
16393;SDS011;8306;51.128;4.476;2023-04-06T11:56:24;11.07;;;10.27;;
16393;SDS011;8306;51.128;4.476;2023-04-06T11:58:56;10.87;;;9.87;;
16393;SDS011;8306;51.128;4.476;2023-04-06T12:01:19;10.63;;;9.90;;
16393;SDS011;8306;51.128;4.476;2023-04-06T12:03:45;10.73;;;9.83;;
16393;SDS011;8306;51.128;4.476;2023-04-06T12:06:12;10.57;;;9.77;;
16393;SDS011;8306;51.128;4.476;2023-04-06T12:08:38;10.90;;;9.90;;
16393;SDS011;8306;51.128;4.476;2023-04-06T12:11:05;11.27;;;10.47;;
16393;SDS011;8306;51.128;4.476;2023-04-06T12:13:31;10.27;;;9.47;;
16393;SDS011;8306;51.128;4.476;2023-04-06T12:15:58;9.93;;;9.23;;
16393;SDS011;8306;51.128;4.476;2023-04-06T12:18:24;10.47;;;9.63;;
16393;SDS011;8306;51.128;4.476;2023-04-06T12:20:51;9.60;;;9.00;;
16393;SDS011;8306;51.128;4.476;2023-04-06T12:23:18;9.87;;;9.07;;
16393;SDS011;8306;51.128;4.476;2023-04-06T12:25:44;9.27;;;8.57;;
16393;SDS011;8306;51.128;4.476;2023-04-06T12:28:10;9.40;;;8.70;;
16393;SDS011;8306;51.128;4.476;2023-04-06T12:30:37;9.57;;;8.87;;
16393;SDS011;8306;51.128;4.476;2023-04-06T12:33:03;9.87;;;9.17;;
16393;SDS011;8306;51.128;4.476;2023-04-06T12:35:33;9.47;;;8.77;;
16393;SDS011;8306;51.128;4.476;2023-04-06T12:37:56;10.03;;;9.23;;
16393;SDS011;8306;51.128;4.476;2023-04-06T12:40:23;10.13;;;9.43;;
16393;SDS011;8306;51.128;4.476;2023-04-06T12:42:50;9.70;;;9.00;;
16393;SDS011;8306;51.128;4.476;2023-04-06T12:45:16;9.73;;;9.13;;
16393;SDS011;8306;51.128;4.476;2023-04-06T12:47:43;10.13;;;9.43;;
16393;SDS011;8306;51.128;4.476;2023-04-06T12:50:09;10.00;;;9.30;;
16393;SDS011;8306;51.128;4.476;2023-04-06T12:52:36;10.00;;;9.30;;
16393;SDS011;8306;51.128;4.476;2023-04-06T12:55:02;11.37;;;10.47;;
16393;SDS011;8306;51.128;4.476;2023-04-06T12:57:28;10.80;;;10.10;;
16393;SDS011;8306;51.128;4.476;2023-04-06T12:59:55;11.13;;;10.13;;
16393;SDS011;8306;51.128;4.476;2023-04-06T13:02:21;10.10;;;9.40;;
16393;SDS011;8306;51.128;4.476;2023-04-06T13:04:48;10.93;;;10.17;;
16393;SDS011;8306;51.128;4.476;2023-04-06T13:07:14;10.00;;;9.10;;
16393;SDS011;8306;51.128;4.476;2023-04-06T13:09:41;9.73;;;8.97;;
16393;SDS011;8306;51.128;4.476;2023-04-06T13:12:07;10.07;;;9.30;;
16393;SDS011;8306;51.128;4.476;2023-04-06T13:14:34;8.93;;;8.33;;
16393;SDS011;8306;51.128;4.476;2023-04-06T13:17:00;8.90;;;8.30;;
16393;SDS011;8306;51.128;4.476;2023-04-06T13:19:27;8.37;;;7.77;;
16393;SDS011;8306;51.128;4.476;2023-04-06T13:21:53;8.23;;;7.73;;
16393;SDS011;8306;51.128;4.476;2023-04-06T13:24:20;8.67;;;8.07;;
16393;SDS011;8306;51.128;4.476;2023-04-06T13:26:46;9.17;;;8.47;;
16393;SDS011;8306;51.128;4.476;2023-04-06T13:29:13;9.80;;;8.97;;
16393;SDS011;8306;51.128;4.476;2023-04-06T13:31:39;8.90;;;8.30;;
16393;SDS011;8306;51.128;4.476;2023-04-06T13:34:06;8.93;;;8.30;;
16393;SDS011;8306;51.128;4.476;2023-04-06T13:36:32;9.10;;;8.40;;
16393;SDS011;8306;51.128;4.476;2023-04-06T13:38:59;8.70;;;8.00;;
16393;SDS011;8306;51.128;4.476;2023-04-06T13:41:25;8.47;;;7.87;;
16393;SDS011;8306;51.128;4.476;2023-04-06T13:43:52;8.80;;;8.20;;
16393;SDS011;8306;51.128;4.476;2023-04-06T13:46:18;9.80;;;9.20;;
16393;SDS011;8306;51.128;4.476;2023-04-06T13:48:45;10.37;;;9.67;;
16393;SDS011;8306;51.128;4.476;2023-04-06T13:51:11;8.73;;;8.23;;
16393;SDS011;8306;51.128;4.476;2023-04-06T13:53:38;9.53;;;8.93;;
16393;SDS011;8306;51.128;4.476;2023-04-06T13:56:04;10.27;;;9.47;;
16393;SDS011;8306;51.128;4.476;2023-04-06T13:58:30;10.73;;;10.00;;
16393;SDS011;8306;51.128;4.476;2023-04-06T14:01:06;10.00;;;9.30;;
16393;SDS011;8306;51.128;4.476;2023-04-06T14:03:33;11.07;;;10.27;;
16393;SDS011;8306;51.128;4.476;2023-04-06T14:05:59;11.90;;;11.00;;
16393;SDS011;8306;51.128;4.476;2023-04-06T14:08:25;10.57;;;9.87;;
16393;SDS011;8306;51.128;4.476;2023-04-06T14:10:52;10.70;;;10.00;;
16393;SDS011;8306;51.128;4.476;2023-04-06T14:13:18;12.20;;;11.33;;
16393;SDS011;8306;51.128;4.476;2023-04-06T14:15:45;11.90;;;11.10;;
16393;SDS011;8306;51.128;4.476;2023-04-06T14:18:11;11.30;;;10.50;;
16393;SDS011;8306;51.128;4.476;2023-04-06T14:20:38;11.17;;;10.37;;
16393;SDS011;8306;51.128;4.476;2023-04-06T14:23:04;11.77;;;10.97;;
16393;SDS011;8306;51.128;4.476;2023-04-06T14:25:31;10.77;;;9.97;;
16393;SDS011;8306;51.128;4.476;2023-04-06T14:27:57;10.93;;;10.03;;
16393;SDS011;8306;51.128;4.476;2023-04-06T14:30:24;10.97;;;10.07;;
16393;SDS011;8306;51.128;4.476;2023-04-06T14:32:50;11.17;;;10.37;;
16393;SDS011;8306;51.128;4.476;2023-04-06T14:35:17;11.93;;;11.13;;
16393;SDS011;8306;51.128;4.476;2023-04-06T14:37:43;12.33;;;11.37;;
16393;SDS011;8306;51.128;4.476;2023-04-06T14:40:10;11.80;;;11.00;;
16393;SDS011;8306;51.128;4.476;2023-04-06T14:42:36;12.10;;;11.30;;